Time;durP1;ratioP1;P1;durP2;ratioP2;P2;SDS_P1;SDS_P2;PMS_P1;PMS_P2;Temp;Humidity;BMP_temperature;BMP_pressure;BME280_temperature;BME280_humidity;BME280_pressure;Samples;Min_cycle;Max_cycle;Signal;HPM_P1;HPM_P2
2022/08/07 00:00:26;;;;;;;;;;;;;;;18.53;100.00;99389.38;1727331;83;21913;-77
2022/08/07 00:02:52;;;;;;;;;;;;;;;18.51;100.00;99388.36;1727662;82;20109;-77
2022/08/07 00:05:24;;;;;;;;;;;;;;;18.49;100.00;99390.12;1727970;83;20155;-77
2022/08/07 00:07:56;;;;;;;;;;;;;;;18.47;100.00;99393.89;1707113;83;20119;-77
2022/08/07 00:10:23;;;;;;;;;;;;;;;18.46;100.00;99390.09;1731045;83;20441;-77
2022/08/07 00:12:54;;;;;;;;;;;;;;;18.44;100.00;99393.23;1728069;83;21603;-77
2022/08/07 00:15:25;;;;;;;;;;;;;;;18.43;100.00;99393.02;1716041;83;20156;-77
2022/08/07 00:17:53;;;;;;;;;;;;;;;18.42;100.00;99386.45;1715006;82;20082;-77
2022/08/07 00:20:19;;;;;;;;;;;;;;;18.41;100.00;99389.81;1706141;83;20136;-77
2022/08/07 00:22:55;;;;;;;;;;;;;;;18.40;100.00;99390.19;1697982;84;20448;-77
2022/08/07 00:25:23;;;;;;;;;;;;;;;18.38;100.00;99387.78;1698572;84;21103;-77
2022/08/07 00:27:58;;;;;;;;;;;;;;;18.36;100.00;99390.71;1702294;84;20436;-76
2022/08/07 00:30:27;;;;;;;;;;;;;;;18.34;100.00;99394.45;1698469;84;20499;-76
2022/08/07 00:32:57;;;;;;;;;;;;;;;18.31;100.00;99397.38;1699358;84;20118;-76
2022/08/07 00:35:33;;;;;;;;;;;;;;;18.26;100.00;99396.89;1702085;84;20416;-77
2022/08/07 00:38:01;;;;;;;;;;;;;;;18.22;100.00;99398.80;1705670;83;20907;-76
2022/08/07 00:40:40;;;;;;;;;;;;;;;18.17;100.00;99401.30;1718652;83;20101;-78
2022/08/07 00:43:07;;;;;;;;;;;;;;;18.08;100.00;99402.92;1718463;83;20120;-76
2022/08/07 00:45:42;;;;;;;;;;;;;;;18.00;100.00;99401.19;1724958;83;20117;-76
2022/08/07 00:48:11;;;;;;;;;;;;;;;17.97;100.00;99396.95;1724649;83;20097;-76
2022/08/07 00:50:43;;;;;;;;;;;;;;;17.95;100.00;99395.13;1700549;83;20125;-76
2022/08/07 00:53:12;;;;;;;;;;;;;;;17.94;100.00;99399.89;1699989;83;20089;-76
2022/08/07 00:55:45;;;;;;;;;;;;;;;17.91;100.00;99396.45;1699559;83;20136;-76
2022/08/07 00:58:17;;;;;;;;;;;;;;;17.91;100.00;99398.45;1700654;83;20089;-76
2022/08/07 01:00:49;;;;;;;;;;;;;;;17.91;100.00;99399.23;1723346;83;20117;-76
2022/08/07 01:03:18;;;;;;;;;;;;;;;17.91;100.00;99405.40;1699282;83;20073;-76
2022/08/07 01:05:46;;;;;;;;;;;;;;;17.91;100.00;99411.73;1724124;83;20089;-76
2022/08/07 01:08:15;;;;;;;;;;;;;;;17.91;100.00;99412.34;1724955;83;20085;-76
2022/08/07 01:10:45;;;;;;;;;;;;;;;17.91;100.00;99415.89;1726464;82;20071;-77
2022/08/07 01:13:20;;;;;;;;;;;;;;;17.89;100.00;99417.46;1720294;82;20118;-76
2022/08/07 01:15:55;;;;;;;;;;;;;;;17.85;100.00;99417.39;1748690;82;21102;-76
2022/08/07 01:18:24;;;;;;;;;;;;;;;17.84;100.00;99418.56;1699642;83;20156;-76
2022/08/07 01:21:15;;;;;;;;;;;;;;;17.84;100.00;99424.11;1724502;83;33362;-79
2022/08/07 01:23:43;;;;;;;;;;;;;;;17.84;100.00;99423.31;1724953;83;20117;-76
2022/08/07 01:26:13;;;;;;;;;;;;;;;17.79;100.00;99422.44;1724881;83;20120;-77
2022/08/07 01:28:44;;;;;;;;;;;;;;;17.74;100.00;99421.34;1725183;82;21185;-77
2022/08/07 01:31:30;;;;;;;;;;;;;;;17.73;100.00;99419.74;1723772;83;20207;-77
2022/08/07 01:33:43;;;;;;;;;;;;;;;17.72;100.00;99419.52;1725011;83;20443;-77
2022/08/07 01:36:16;;;;;;;;;;;;;;;17.72;100.00;99415.36;1723553;83;20164;-77
2022/08/07 01:38:46;;;;;;;;;;;;;;;17.76;100.00;99420.98;1688528;84;20113;-76
2022/08/07 01:41:14;;;;;;;;;;;;;;;17.75;100.00;99418.79;1723130;83;21215;-77
2022/08/07 01:43:43;;;;;;;;;;;;;;;17.73;100.00;99408.63;1698347;83;20096;-77
2022/08/07 01:46:12;;;;;;;;;;;;;;;17.72;100.00;99410.39;1724955;83;20105;-76
2022/08/07 01:48:44;;;;;;;;;;;;;;;17.73;100.00;99409.22;1724949;83;20129;-76
2022/08/07 01:51:15;;;;;;;;;;;;;;;17.70;100.00;99409.37;1725182;83;20077;-76
2022/08/07 01:53:46;;;;;;;;;;;;;;;17.71;100.00;99418.50;1724469;82;22000;-77
2022/08/07 01:56:27;;;;;;;;;;;;;;;17.69;100.00;99416.09;1723833;83;20090;-77
2022/08/07 01:59:10;;;;;;;;;;;;;;;17.68;100.00;99413.67;1724532;83;20429;-76
2022/08/07 02:01:45;;;;;;;;;;;;;;;17.66;100.00;99416.82;1724020;83;20178;-76
2022/08/07 02:04:21;;;;;;;;;;;;;;;17.66;100.00;99416.02;1718395;83;20120;-76
2022/08/07 02:06:51;;;;;;;;;;;;;;;17.64;100.00;99414.97;1725113;82;21181;-76
2022/08/07 02:09:29;;;;;;;;;;;;;;;17.64;100.00;99415.55;1724830;83;20112;-77
2022/08/07 02:11:57;;;;;;;;;;;;;;;17.62;100.00;99408.97;1698759;83;20428;-76
2022/08/07 02:14:25;;;;;;;;;;;;;;;17.61;100.00;99414.30;1724899;83;20237;-77
2022/08/07 02:16:53;;;;;;;;;;;;;;;17.58;100.00;99406.71;1723137;83;20093;-77
2022/08/07 02:19:27;;;;;;;;;;;;;;;17.56;100.00;99409.05;1725028;83;22102;-76
2022/08/07 02:21:54;;;;;;;;;;;;;;;17.55;100.00;99410.22;1724721;83;20500;-77
2022/08/07 02:24:25;;;;;;;;;;;;;;;17.54;100.00;99411.38;1724240;83;20452;-76
2022/08/07 02:26:51;;;;;;;;;;;;;;;17.52;100.00;99409.56;1725250;83;20167;-77
2022/08/07 02:29:21;;;;;;;;;;;;;;;17.51;100.00;99412.11;1724866;83;20428;-77
2022/08/07 02:31:51;;;;;;;;;;;;;;;17.49;100.00;99409.70;1724081;83;21151;-76
2022/08/07 02:34:27;;;;;;;;;;;;;;;17.47;100.00;99413.42;1721122;83;20073;-76
2022/08/07 02:36:56;;;;;;;;;;;;;;;17.45;100.00;99412.19;1723683;83;20105;-78
2022/08/07 02:39:24;;;;;;;;;;;;;;;17.43;100.00;99410.36;1697465;83;20097;-76
2022/08/07 02:41:53;;;;;;;;;;;;;;;17.42;100.00;99417.08;1701062;84;20117;-77
2022/08/07 02:44:22;;;;;;;;;;;;;;;17.41;100.00;99416.27;1702798;84;21836;-76
2022/08/07 02:46:54;;;;;;;;;;;;;;;17.39;100.00;99417.22;1707885;83;20097;-76
2022/08/07 02:49:23;;;;;;;;;;;;;;;17.41;100.00;99419.63;1706281;83;20123;-76
2022/08/07 02:51:52;;;;;;;;;;;;;;;17.40;100.00;99422.19;1731582;82;20087;-77
2022/08/07 02:54:23;;;;;;;;;;;;;;;17.40;100.00;99418.83;1706395;83;20434;-76
2022/08/07 02:56:52;;;;;;;;;;;;;;;17.40;100.00;99424.38;1730906;83;20162;-76
2022/08/07 02:59:23;;;;;;;;;;;;;;;17.40;100.00;99421.60;1728112;83;20422;-76
2022/08/07 03:01:54;;;;;;;;;;;;;;;17.40;100.00;99425.77;1727652;83;20168;-77
2022/08/07 03:04:27;;;;;;;;;;;;;;;17.42;100.00;99430.95;1727631;82;20152;-77
2022/08/07 03:06:51;;;;;;;;;;;;;;;17.42;100.00;99428.17;1727571;83;20119;-76
2022/08/07 03:09:22;;;;;;;;;;;;;;;17.43;100.00;99425.62;1731692;82;21161;-76
2022/08/07 03:11:55;;;;;;;;;;;;;;;17.44;100.00;99431.39;1728107;83;20122;-76
2022/08/07 03:14:28;;;;;;;;;;;;;;;17.45;100.00;99431.61;1729479;83;20151;-77
2022/08/07 03:16:55;;;;;;;;;;;;;;;17.46;100.00;99424.31;1727443;83;20110;-77
2022/08/07 03:19:29;;;;;;;;;;;;;;;17.50;100.00;99424.38;1727846;81;20111;-76
2022/08/07 03:22:05;;;;;;;;;;;;;;;17.54;100.00;99426.66;1706732;83;20095;-77
2022/08/07 03:24:37;;;;;;;;;;;;;;;17.58;100.00;99428.92;1727880;83;20182;-77
2022/08/07 03:27:06;;;;;;;;;;;;;;;17.64;100.00;99426.66;1706537;83;20087;-77
2022/08/07 03:29:40;;;;;;;;;;;;;;;17.69;100.00;99429.97;1727818;82;20182;-77
2022/08/07 03:32:10;;;;;;;;;;;;;;;17.74;100.00;99432.45;1726166;83;20119;-77
2022/08/07 03:34:47;;;;;;;;;;;;;;;17.81;100.00;99433.17;1720006;83;21845;-76
2022/08/07 03:37:17;;;;;;;;;;;;;;;17.90;100.00;99437.12;1726440;83;20123;-78
2022/08/07 03:39:47;;;;;;;;;;;;;;;17.97;100.00;99435.84;1701824;83;20167;-76
2022/08/07 03:42:17;;;;;;;;;;;;;;;18.05;100.00;99432.83;1727762;82;20600;-75
2022/08/07 03:44:46;;;;;;;;;;;;;;;18.16;100.00;99434.42;1725386;83;20424;-79
2022/08/07 03:47:20;;;;;;;;;;;;;;;18.24;100.00;99431.19;1730989;82;20427;-75
2022/08/07 03:49:52;;;;;;;;;;;;;;;18.37;100.00;99432.61;1727341;82;20430;-77
2022/08/07 03:52:27;;;;;;;;;;;;;;;18.48;100.00;99434.38;1727065;83;20131;-76
2022/08/07 03:54:56;;;;;;;;;;;;;;;18.58;100.00;99438.51;1726916;83;20146;-76
2022/08/07 03:57:26;;;;;;;;;;;;;;;18.69;100.00;99437.33;1727667;83;20407;-75
2022/08/07 03:59:53;;;;;;;;;;;;;;;18.82;100.00;99441.52;1727677;83;21148;-78
2022/08/07 04:02:24;;;;;;;;;;;;;;;18.92;100.00;99443.66;1730174;83;20099;-76
2022/08/07 04:04:56;;;;;;;;;;;;;;;19.01;100.00;99441.42;1727556;83;20154;-78
2022/08/07 04:07:29;;;;;;;;;;;;;;;19.11;100.00;99439.36;1726141;83;20446;-79
2022/08/07 04:09:59;;;;;;;;;;;;;;;19.23;100.00;99448.66;1695946;83;20147;-78
2022/08/07 04:12:30;;;;;;;;;;;;;;;19.33;100.00;99451.59;1695153;83;20186;-79
2022/08/07 04:15:02;;;;;;;;;;;;;;;19.45;100.00;99447.78;1718580;83;20085;-76
2022/08/07 04:17:37;;;;;;;;;;;;;;;19.56;100.00;99445.97;1692983;83;20109;-77
2022/08/07 04:20:15;;;;;;;;;;;;;;;19.67;100.00;99442.70;1699050;84;20129;-77
2022/08/07 04:22:40;;;;;;;;;;;;;;;19.80;100.00;99443.26;1697726;84;20089;-83
2022/08/07 04:25:11;;;;;;;;;;;;;;;19.91;100.00;99446.17;1698420;84;21243;-83
2022/08/07 04:27:40;;;;;;;;;;;;;;;20.00;100.00;99449.45;1698493;84;20097;-84
2022/08/07 04:30:14;;;;;;;;;;;;;;;20.09;100.00;99452.16;1701229;84;20164;-72
2022/08/07 04:32:52;;;;;;;;;;;;;;;20.18;100.00;99450.45;1701944;84;20150;-77
2022/08/07 04:35:16;;;;;;;;;;;;;;;20.28;100.00;99448.94;1697535;83;20448;-80
2022/08/07 04:37:44;;;;;;;;;;;;;;;20.40;100.00;99451.48;1704962;83;21015;-76
2022/08/07 04:40:14;;;;;;;;;;;;;;;20.50;100.00;99453.56;1727381;83;20292;-77
2022/08/07 04:42:46;;;;;;;;;;;;;;;20.62;100.00;99458.86;1728642;82;20135;-76
2022/08/07 04:45:18;;;;;;;;;;;;;;;20.74;100.00;99457.77;1753039;82;20159;-73
2022/08/07 04:47:53;;;;;;;;;;;;;;;20.87;100.00;99466.60;1752616;82;20163;-85
2022/08/07 04:50:39;;;;;;;;;;;;;;;20.99;100.00;99466.30;1753954;82;21532;-85
2022/08/07 04:53:13;;;;;;;;;;;;;;;21.12;100.00;99469.58;1753802;82;20481;-79
2022/08/07 04:55:48;;;;;;;;;;;;;;;21.22;100.00;99475.27;1753435;82;20114;-79
2022/08/07 04:58:21;;;;;;;;;;;;;;;21.32;100.00;99473.15;1754411;82;20155;-80
2022/08/07 05:01:13;;;;;;;;;;;;;;;21.45;100.00;99473.59;1753950;82;20189;-83
2022/08/07 05:04:09;;;;;;;;;;;;;;;21.52;100.00;99470.84;1753882;82;21175;-80
2022/08/07 05:06:41;;;;;;;;;;;;;;;21.61;100.00;99476.08;1669214;84;20146;-78
2022/08/07 05:09:14;;;;;;;;;;;;;;;21.73;100.00;99482.13;1693377;83;20151;-83
2022/08/07 05:11:45;;;;;;;;;;;;;;;21.84;100.00;99475.19;1721799;82;20476;-75
2022/08/07 05:14:15;;;;;;;;;;;;;;;21.95;100.00;99473.20;1754011;82;20090;-75
2022/08/07 05:16:49;;;;;;;;;;;;;;;22.07;100.00;99479.06;1743781;82;21134;-82
2022/08/07 05:19:17;;;;;;;;;;;;;;;22.21;100.00;99480.51;1754090;81;20436;-72
2022/08/07 05:21:53;;;;;;;;;;;;;;;22.36;100.00;99478.55;1754430;82;20082;-78
2022/08/07 05:24:28;;;;;;;;;;;;;;;22.51;100.00;99474.58;1754285;82;20086;-82
2022/08/07 05:26:56;;;;;;;;;;;;;;;22.68;100.00;99483.56;1754463;81;20094;-85
2022/08/07 05:29:24;;;;;;;;;;;;;;;22.82;100.00;99473.61;1754370;82;21150;-82
2022/08/07 05:31:55;;;;;;;;;;;;;;;22.96;100.00;99482.01;1729752;82;20119;-91
2022/08/07 05:34:28;;;;;;;;;;;;;;;23.08;100.00;99485.00;1754502;82;20103;-85
2022/08/07 05:36:54;;;;;;;;;;;;;;;23.18;100.00;99484.97;1753872;82;20659;-86
2022/08/07 05:39:22;;;;;;;;;;;;;;;23.31;100.00;99486.75;1729635;82;20111;-94
2022/08/07 05:41:55;;;;;;;;;;;;;;;23.44;100.00;99487.12;1753781;82;21257;-77
2022/08/07 05:44:25;;;;;;;;;;;;;;;23.55;100.00;99492.13;1753400;82;20099;-79
2022/08/07 05:46:55;;;;;;;;;;;;;;;23.66;100.00;99495.10;1754639;82;20082;-79
2022/08/07 05:49:24;;;;;;;;;;;;;;;23.80;99.07;99497.63;1754902;82;20082;-78
2022/08/07 05:51:56;;;;;;;;;;;;;;;23.90;97.00;99493.99;1754017;82;20477;-76
2022/08/07 05:54:24;;;;;;;;;;;;;;;24.02;95.71;99492.94;1754455;82;21830;-73
2022/08/07 05:56:55;;;;;;;;;;;;;;;24.15;95.77;99489.67;1754773;82;20147;-73
2022/08/07 05:59:30;;;;;;;;;;;;;;;24.30;95.69;99485.59;1754855;81;20410;-74
2022/08/07 06:01:59;;;;;;;;;;;;;;;24.44;93.38;99486.91;1754239;82;20071;-73
2022/08/07 06:04:25;;;;;;;;;;;;;;;24.57;93.18;99483.81;1754881;82;20409;-72
2022/08/07 06:06:58;;;;;;;;;;;;;;;24.66;90.89;99489.77;1754723;82;21142;-72
2022/08/07 06:09:26;;;;;;;;;;;;;;;24.74;89.00;99488.31;1754070;81;20079;-82
2022/08/07 06:11:57;;;;;;;;;;;;;;;24.81;88.22;99492.47;1754865;82;20086;-82
2022/08/07 06:14:24;;;;;;;;;;;;;;;24.87;87.83;99497.20;1754726;82;20167;-82
2022/08/07 06:17:00;;;;;;;;;;;;;;;24.98;87.86;99502.77;1753899;82;20102;-77
2022/08/07 06:19:28;;;;;;;;;;;;;;;25.10;87.67;99501.46;1754331;82;21086;-83
2022/08/07 06:22:02;;;;;;;;;;;;;;;25.22;85.97;99504.56;1754569;81;20137;-75
2022/08/07 06:24:31;;;;;;;;;;;;;;;25.31;84.74;99494.24;1744748;82;20089;-75
2022/08/07 06:27:03;;;;;;;;;;;;;;;25.39;85.03;99491.55;1703517;83;20121;-80
2022/08/07 06:29:34;;;;;;;;;;;;;;;25.51;84.46;99500.04;1727564;82;20141;-71
2022/08/07 06:32:01;;;;;;;;;;;;;;;25.65;84.74;99499.31;1741426;82;21136;-79
2022/08/07 06:34:34;;;;;;;;;;;;;;;25.79;82.93;99501.77;1752795;82;20226;-80
2022/08/07 06:37:02;;;;;;;;;;;;;;;25.88;82.10;99498.64;1752956;82;20114;-78
2022/08/07 06:39:35;;;;;;;;;;;;;;;26.00;82.25;99495.25;1753169;82;20476;-75
2022/08/07 06:42:08;;;;;;;;;;;;;;;26.15;81.08;99496.47;1728675;82;20130;-85
2022/08/07 06:44:46;;;;;;;;;;;;;;;26.25;80.57;99499.14;1743421;82;21279;-82
2022/08/07 06:47:13;;;;;;;;;;;;;;;26.38;80.38;99496.59;1724267;83;20147;-87
2022/08/07 06:49:44;;;;;;;;;;;;;;;26.52;79.73;99489.96;1723351;82;20100;-92
2022/08/07 06:52:08;;;;;;;;;;;;;;;26.65;80.17;99488.92;1730858;82;20181;-86
2022/08/07 06:54:38;;;;;;;;;;;;;;;26.78;77.48;99487.72;1727909;82;20173;-75
2022/08/07 06:57:12;;;;;;;;;;;;;;;26.91;76.59;99487.91;1753790;81;21081;-78
2022/08/07 06:59:40;;;;;;;;;;;;;;;27.02;74.80;99490.59;1753649;81;20119;-78
2022/08/07 07:02:11;;;;;;;;;;;;;;;27.09;74.57;99486.23;1751094;82;20170;-79
2022/08/07 07:04:40;;;;;;;;;;;;;;;27.19;74.02;99483.81;1744824;82;20202;-90
2022/08/07 07:07:06;;;;;;;;;;;;;;;27.30;73.26;99490.06;1735464;81;20153;-77
2022/08/07 07:09:34;;;;;;;;;;;;;;;27.43;72.30;99487.41;1698056;83;20366;-81
2022/08/07 07:12:11;;;;;;;;;;;;;;;27.56;72.16;99493.41;1695107;83;20085;-76
2022/08/07 07:15:02;;;;;;;;;;;;;;;27.70;71.52;99492.97;1724274;83;20144;-76
2022/08/07 07:17:37;;;;;;;;;;;;;;;27.84;69.77;99498.30;1721563;83;20303;-77
2022/08/07 07:20:10;;;;;;;;;;;;;;;27.97;69.37;99492.80;1724579;83;20144;-76
2022/08/07 07:22:42;;;;;;;;;;;;;;;28.11;68.25;99493.30;1744723;82;20298;-76
2022/08/07 07:25:11;;;;;;;;;;;;;;;28.24;69.56;99492.84;1750689;82;20169;-76
2022/08/07 07:28:05;;;;;;;;;;;;;;;28.36;69.35;99494.79;1752361;82;20151;-76
2022/08/07 07:30:37;;;;;;;;;;;;;;;28.50;68.33;99491.64;1752250;82;20458;-76
2022/08/07 07:33:13;;;;;;;;;;;;;;;28.66;68.19;99495.11;1752138;82;20083;-76
2022/08/07 07:35:44;;;;;;;;;;;;;;;28.82;66.95;99500.19;1751973;82;21811;-76
2022/08/07 07:38:13;;;;;;;;;;;;;;;28.99;66.03;99498.75;1752356;82;20483;-76
2022/08/07 07:40:44;;;;;;;;;;;;;;;29.15;66.00;99502.38;1752856;82;20439;-76
2022/08/07 07:43:18;;;;;;;;;;;;;;;29.30;65.62;99499.17;1741903;82;20119;-76
2022/08/07 07:45:44;;;;;;;;;;;;;;;29.44;63.78;99504.48;1734423;82;20127;-76
2022/08/07 07:48:14;;;;;;;;;;;;;;;29.55;63.51;99505.76;1733747;83;21155;-76
2022/08/07 07:51:01;;;;;;;;;;;;;;;29.62;62.08;99502.56;1703380;83;20461;-76
2022/08/07 07:53:19;;;;;;;;;;;;;;;29.69;62.12;99504.58;1726521;83;20095;-76
2022/08/07 07:55:51;;;;;;;;;;;;;;;29.80;62.99;99505.08;1728410;83;20098;-76
2022/08/07 07:58:17;;;;;;;;;;;;;;;29.93;60.80;99500.08;1733781;83;20083;-76
2022/08/07 08:00:47;;;;;;;;;;;;;;;30.00;61.13;99501.31;1704505;83;20098;-76
2022/08/07 08:03:17;;;;;;;;;;;;;;;30.08;59.51;99497.00;1704668;83;20435;-76
2022/08/07 08:05:46;;;;;;;;;;;;;;;30.13;58.55;99499.28;1732013;82;20463;-76
2022/08/07 08:08:15;;;;;;;;;;;;;;;30.23;60.53;99504.63;1733649;82;20118;-76
2022/08/07 08:10:44;;;;;;;;;;;;;;;30.52;58.81;99504.55;1733768;83;20117;-76
2022/08/07 08:13:15;;;;;;;;;;;;;;;30.67;56.06;99504.11;1733795;83;21065;-76
2022/08/07 08:15:43;;;;;;;;;;;;;;;30.80;56.85;99497.81;1733797;83;20098;-76
2022/08/07 08:18:11;;;;;;;;;;;;;;;31.07;56.73;99502.38;1733809;83;20481;-76
2022/08/07 08:20:42;;;;;;;;;;;;;;;31.34;56.32;99496.19;1704233;83;20143;-76
2022/08/07 08:28:52;;;;;;;;;;;;;;;32.01;53.86;99498.63;1733800;83;20106;-76
2022/08/07 08:31:32;;;;;;;;;;;;;;;32.39;53.83;99495.55;1704425;83;20090;-77
2022/08/07 08:34:03;;;;;;;;;;;;;;;32.69;51.66;99497.42;1733699;83;20401;-77
2022/08/07 08:36:31;;;;;;;;;;;;;;;32.93;51.53;99490.59;1733176;83;20114;-77
2022/08/07 08:39:00;;;;;;;;;;;;;;;33.20;50.06;99489.20;1733782;83;21111;-77
2022/08/07 08:41:50;;;;;;;;;;;;;;;33.32;49.93;99485.46;1704742;83;20563;-77
2022/08/07 08:44:40;;;;;;;;;;;;;;;33.31;48.79;99486.72;1704724;83;20114;-76
2022/08/07 08:47:31;;;;;;;;;;;;;;;33.16;48.69;99487.14;1732047;82;20130;-76
2022/08/07 08:50:23;;;;;;;;;;;;;;;32.76;47.73;99491.48;1715274;83;20131;-76
2022/08/07 08:52:56;;;;;;;;;;;;;;;32.33;48.72;99481.03;1726053;83;21129;-76
2022/08/07 08:55:31;;;;;;;;;;;;;;;31.95;50.55;99479.20;1700112;83;20078;-76
2022/08/07 08:58:13;;;;;;;;;;;;;;;31.74;51.96;99476.55;1700825;83;20174;-77
2022/08/07 09:00:44;;;;;;;;;;;;;;;31.56;52.58;99482.67;1700592;83;20119;-76
2022/08/07 09:03:30;;;;;;;;;;;;;;;31.33;53.75;99481.84;1699993;83;20102;-76
2022/08/07 09:06:05;;;;;;;;;;;;;;;31.11;54.90;99481.78;1725719;83;21109;-76
2022/08/07 09:08:54;;;;;;;;;;;;;;;30.92;55.03;99481.42;1725932;82;20118;-77
2022/08/07 09:11:55;;;;;;;;;;;;;;;30.66;56.02;99479.85;1689770;83;20135;-76
2022/08/07 09:14:21;;;;;;;;;;;;;;;30.35;57.02;99482.45;1696458;83;20087;-76
2022/08/07 09:17:11;;;;;;;;;;;;;;;30.04;57.51;99462.38;1718703;83;20110;-76
2022/08/07 09:19:58;;;;;;;;;;;;;;;29.80;58.32;99461.84;1726039;83;21148;-76
2022/08/07 09:22:45;;;;;;;;;;;;;;;29.53;59.98;99477.75;1700874;83;20119;-76
2022/08/07 09:25:17;;;;;;;;;;;;;;;29.33;60.69;99479.30;1726039;82;20114;-76
2022/08/07 09:28:03;;;;;;;;;;;;;;;29.17;61.04;99483.55;1725991;82;20144;-76
2022/08/07 09:30:50;;;;;;;;;;;;;;;29.00;61.66;99489.04;1700420;83;20107;-76
2022/08/07 09:33:44;;;;;;;;;;;;;;;28.77;62.29;99489.39;1725384;83;20119;-76
2022/08/07 09:36:28;;;;;;;;;;;;;;;28.56;63.04;99487.86;1725880;83;20083;-75
2022/08/07 09:39:10;;;;;;;;;;;;;;;28.32;64.43;99495.48;1696929;83;20151;-76
2022/08/07 09:41:55;;;;;;;;;;;;;;;28.04;64.53;99480.76;1707021;83;20167;-76
2022/08/07 09:45:01;;;;;;;;;;;;;;;27.81;66.33;99478.81;1679709;85;20141;-81
2022/08/07 09:47:54;;;;;;;;;;;;;;;27.60;69.70;99482.87;1724342;82;21174;-78
2022/08/07 09:50:50;;;;;;;;;;;;;;;27.38;68.77;99477.44;1724940;83;20095;-77
2022/08/07 09:53:21;;;;;;;;;;;;;;;27.13;65.24;99481.34;1700145;83;20122;-80
2022/08/07 09:56:09;;;;;;;;;;;;;;;26.61;63.65;99478.33;1725174;83;20142;-78
2022/08/07 09:58:54;;;;;;;;;;;;;;;26.30;64.63;99483.81;1721795;83;20085;-78
2022/08/07 10:01:29;;;;;;;;;;;;;;;26.10;65.22;99473.03;1711147;83;21223;-76
2022/08/07 10:04:01;;;;;;;;;;;;;;;26.11;67.50;99474.63;1695034;84;20109;-76
2022/08/07 10:06:43;;;;;;;;;;;;;;;26.22;68.53;99478.09;1696532;84;20078;-79
2022/08/07 10:09:22;;;;;;;;;;;;;;;26.29;68.83;99495.67;1695683;84;20118;-78
2022/08/07 10:12:11;;;;;;;;;;;;;;;26.29;66.96;99495.67;1696628;83;20110;-80
2022/08/07 10:15:18;;;;;;;;;;;;;;;26.29;68.59;99497.08;1696575;84;21754;-76
2022/08/07 10:18:14;;;;;;;;;;;;;;;26.22;73.04;99497.18;1718358;83;20732;-76
2022/08/07 10:21:18;;;;;;;;;;;;;;;26.17;76.45;99493.42;1725311;83;20116;-76
2022/08/07 10:24:00;;;;;;;;;;;;;;;26.13;74.80;99501.73;1707806;83;20111;-75
2022/08/07 10:26:46;;;;;;;;;;;;;;;26.14;78.08;99508.95;1725262;82;20158;-75
2022/08/07 10:29:51;;;;;;;;;;;;;;;26.03;78.79;99524.55;1724388;82;21228;-73
2022/08/07 10:32:29;;;;;;;;;;;;;;;25.79;75.25;99513.02;1725301;83;20083;-80
2022/08/07 10:35:29;;;;;;;;;;;;;;;25.66;76.10;99507.93;1707939;83;20115;-75
2022/08/07 10:38:20;;;;;;;;;;;;;;;25.66;78.73;99505.13;1696601;83;20176;-80
2022/08/07 10:41:13;;;;;;;;;;;;;;;25.58;80.31;99497.95;1724514;82;20176;-78
2022/08/07 10:43:55;;;;;;;;;;;;;;;25.50;77.53;99488.00;1705683;83;20134;-82
2022/08/07 10:46:24;;;;;;;;;;;;;;;25.51;79.74;99469.13;1695728;83;20095;-77
2022/08/07 10:48:58;;;;;;;;;;;;;;;25.58;81.00;99458.59;1724318;82;20134;-73
2022/08/07 10:51:46;;;;;;;;;;;;;;;25.66;82.11;99448.90;1723376;82;20143;-72
2022/08/07 10:54:16;;;;;;;;;;;;;;;25.78;82.62;99438.32;1708196;82;20186;-82
2022/08/07 10:57:03;;;;;;;;;;;;;;;25.91;81.90;99426.70;1710179;83;21914;-84
2022/08/07 10:59:54;;;;;;;;;;;;;;;26.04;82.63;99422.08;1702491;82;20111;-85
2022/08/07 11:02:33;;;;;;;;;;;;;;;26.16;81.00;99429.14;1698329;83;20424;-83
2022/08/07 11:05:21;;;;;;;;;;;;;;;26.30;79.16;99435.97;1702869;83;20225;-87
2022/08/07 11:08:13;;;;;;;;;;;;;;;26.41;74.08;99438.66;1722856;83;20107;-89
2022/08/07 11:11:01;;;;;;;;;;;;;;;26.46;75.29;99442.41;1695111;83;21990;-78
2022/08/07 11:13:48;;;;;;;;;;;;;;;26.46;77.27;99433.96;1695420;84;20205;-77
2022/08/07 11:16:40;;;;;;;;;;;;;;;26.38;75.62;99428.25;1703845;83;20098;-77
2022/08/07 11:19:37;;;;;;;;;;;;;;;26.23;76.10;99420.60;1706071;83;20509;-77
2022/08/07 11:22:07;;;;;;;;;;;;;;;26.12;78.42;99427.79;1700587;83;20170;-78
2022/08/07 11:25:07;;;;;;;;;;;;;;;26.07;79.82;99424.05;1697535;83;21161;-79
2022/08/07 11:27:58;;;;;;;;;;;;;;;26.02;81.01;99432.16;1701206;83;20144;-90
2022/08/07 11:30:27;;;;;;;;;;;;;;;25.98;80.03;99450.52;1695711;84;20440;-81
2022/08/07 11:33:09;;;;;;;;;;;;;;;25.88;77.61;99467.71;1694878;84;20160;-81
2022/08/07 11:35:48;;;;;;;;;;;;;;;25.81;77.86;99475.44;1695564;84;20090;-82
2022/08/07 11:38:29;;;;;;;;;;;;;;;25.77;79.77;99492.95;1681125;84;21275;-77
2022/08/07 11:41:02;;;;;;;;;;;;;;;25.72;79.94;99492.81;1674091;84;20161;-83
2022/08/07 11:43:33;;;;;;;;;;;;;;;25.62;79.91;99497.91;1696997;83;20153;-80
2022/08/07 11:46:23;;;;;;;;;;;;;;;25.50;80.57;99488.61;1687445;83;20090;-80
2022/08/07 11:49:02;;;;;;;;;;;;;;;25.36;80.26;99506.44;1700229;83;20244;-73
2022/08/07 11:51:36;;;;;;;;;;;;;;;25.16;81.28;99510.43;1699480;83;22249;-80
2022/08/07 11:54:09;;;;;;;;;;;;;;;24.98;82.83;99476.09;1726986;82;20192;-77
2022/08/07 11:56:58;;;;;;;;;;;;;;;24.87;84.26;99442.45;1695882;83;20087;-75
2022/08/07 11:59:46;;;;;;;;;;;;;;;24.82;86.32;99414.06;1643086;86;20505;-76
2022/08/07 12:02:37;;;;;;;;;;;;;;;24.69;88.45;99410.36;1635032;86;20097;-76
2022/08/07 12:05:16;;;;;;;;;;;;;;;24.34;90.86;99417.03;1675555;83;21920;-80
2022/08/07 12:07:59;;;;;;;;;;;;;;;23.95;92.72;99445.31;1715046;83;20410;-80
2022/08/07 12:10:40;;;;;;;;;;;;;;;23.65;95.38;99480.89;1700488;82;20134;-80
2022/08/07 12:13:37;;;;;;;;;;;;;;;23.36;96.48;99505.34;1713076;82;20414;-71
2022/08/07 12:16:21;;;;;;;;;;;;;;;23.11;97.05;99530.40;1703513;83;20180;-71
2022/08/07 12:19:17;;;;;;;;;;;;;;;22.79;97.81;99529.78;1684405;84;21181;-72
2022/08/07 12:21:53;;;;;;;;;;;;;;;22.55;98.72;99524.91;1688182;83;20412;-85
2022/08/07 12:24:30;;;;;;;;;;;;;;;22.34;100.00;99527.88;1675854;84;20142;-80
2022/08/07 12:27:06;;;;;;;;;;;;;;;22.18;100.00;99521.04;1687221;84;20612;-84
2022/08/07 12:29:37;;;;;;;;;;;;;;;21.98;100.00;99519.93;1687311;85;20205;-75
2022/08/07 12:32:22;;;;;;;;;;;;;;;21.79;100.00;99519.47;1688324;84;21126;-78
2022/08/07 12:34:49;;;;;;;;;;;;;;;21.63;100.00;99523.97;1688909;84;20460;-73
2022/08/07 12:37:21;;;;;;;;;;;;;;;21.49;100.00;99520.49;1688130;83;20209;-81
2022/08/07 12:39:52;;;;;;;;;;;;;;;21.39;100.00;99524.02;1689229;83;20106;-77
2022/08/07 12:42:20;;;;;;;;;;;;;;;21.31;100.00;99514.02;1689328;83;20457;-81
2022/08/07 12:44:49;;;;;;;;;;;;;;;21.24;100.00;99522.34;1689310;85;21064;-80
2022/08/07 12:47:46;;;;;;;;;;;;;;;21.15;100.00;99525.44;1689182;85;20100;-75
2022/08/07 12:50:39;;;;;;;;;;;;;;;21.08;100.00;99528.97;1673027;85;20421;-76
2022/08/07 12:53:35;;;;;;;;;;;;;;;21.06;100.00;99522.97;1721172;82;20384;-76
2022/08/07 12:56:11;;;;;;;;;;;;;;;21.04;100.00;99525.34;1707137;84;20153;-77
2022/08/07 12:58:41;;;;;;;;;;;;;;;21.03;100.00;99515.97;1711762;82;22601;-78
2022/08/07 13:01:20;;;;;;;;;;;;;;;20.99;100.00;99517.33;1726608;82;20076;-79
2022/08/07 13:04:12;;;;;;;;;;;;;;;21.02;100.00;99502.61;1702694;83;20152;-89
2022/08/07 13:06:52;;;;;;;;;;;;;;;21.07;100.00;99488.89;1706060;83;20141;-88
2022/08/07 13:09:44;;;;;;;;;;;;;;;21.01;100.00;99484.86;1713282;83;20168;-78
2022/08/07 13:12:22;;;;;;;;;;;;;;;21.06;100.00;99478.91;1705795;83;21153;-77
2022/08/07 13:15:07;;;;;;;;;;;;;;;21.18;100.00;99477.80;1706609;83;20089;-77
2022/08/07 13:17:50;;;;;;;;;;;;;;;21.30;100.00;99491.47;1706730;84;20432;-77
2022/08/07 13:20:38;;;;;;;;;;;;;;;21.34;100.00;99502.08;1706111;83;20154;-77
2022/08/07 13:23:08;;;;;;;;;;;;;;;21.26;100.00;99519.97;1712688;82;20467;-77
2022/08/07 13:25:41;;;;;;;;;;;;;;;21.17;100.00;99523.06;1720342;82;21975;-77
2022/08/07 13:28:12;;;;;;;;;;;;;;;21.13;100.00;99520.03;1721909;82;20141;-76